Time;durP1;ratioP1;P1;durP2;ratioP2;P2;SDS_P1;SDS_P2;PMS_P1;PMS_P2;Temp;Humidity;BMP_temperature;BMP_pressure;BME280_temperature;BME280_humidity;BME280_pressure;Samples;Min_cycle;Max_cycle;Signal;HPM_P1;HPM_P2
2022/01/08 00:01:35;;;;;;;2.88;1.02;;;;;;;;;;5087983;28;20187;-78
2022/01/08 00:04:01;;;;;;;1.30;0.90;;;;;;;;;;5091968;28;20561;-78
2022/01/08 00:06:27;;;;;;;1.53;0.90;;;;;;;;;;5110461;28;20238;-77
2022/01/08 00:08:53;;;;;;;1.65;1.00;;;;;;;;;;5101014;28;20424;-78
2022/01/08 00:11:21;;;;;;;1.77;1.25;;;;;;;;;;5105128;28;20231;-78
2022/01/08 00:13:47;;;;;;;1.40;0.90;;;;;;;;;;5106437;28;20194;-78
2022/01/08 00:16:14;;;;;;;2.47;1.80;;;;;;;;;;5119020;27;20177;-78
2022/01/08 00:18:40;;;;;;;2.05;0.90;;;;;;;;;;5110467;28;20247;-78
2022/01/08 00:21:06;;;;;;;0.95;0.85;;;;;;;;;;5106398;28;20541;-77
2022/01/08 00:23:32;;;;;;;1.92;1.10;;;;;;;;;;5102010;28;20239;-77
2022/01/08 00:26:00;;;;;;;5.32;1.38;;;;;;;;;;5121850;28;20200;-77
2022/01/08 00:28:27;;;;;;;1.33;1.20;;;;;;;;;;5107356;28;20172;-78
2022/01/08 00:30:53;;;;;;;2.10;1.10;;;;;;;;;;5109997;28;20202;-78
2022/01/08 00:33:20;;;;;;;1.00;0.90;;;;;;;;;;5110282;28;20183;-77
2022/01/08 00:35:47;;;;;;;3.28;1.02;;;;;;;;;;5094099;28;20188;-77
2022/01/08 00:38:13;;;;;;;1.65;1.27;;;;;;;;;;5091179;28;20190;-80
2022/01/08 00:40:39;;;;;;;2.55;0.80;;;;;;;;;;5120640;28;20203;-78
2022/01/08 00:43:05;;;;;;;1.73;1.10;;;;;;;;;;5109357;28;20205;-77
2022/01/08 00:45:31;;;;;;;1.45;1.05;;;;;;;;;;5093258;28;20256;-77
2022/01/08 00:47:57;;;;;;;2.35;1.10;;;;;;;;;;5102908;28;20186;-78
2022/01/08 00:50:23;;;;;;;2.55;0.80;;;;;;;;;;5101327;28;20175;-78
2022/01/08 00:52:49;;;;;;;1.10;1.00;;;;;;;;;;5103663;28;20210;-77
2022/01/08 00:55:15;;;;;;;2.35;1.15;;;;;;;;;;5107493;28;20176;-78
2022/01/08 00:57:41;;;;;;;2.17;1.08;;;;;;;;;;5092330;28;20507;-77
2022/01/08 01:00:09;;;;;;;1.73;1.13;;;;;;;;;;5101470;28;20246;-78
2022/01/08 01:02:35;;;;;;;2.08;1.20;;;;;;;;;;5102711;28;20190;-78
2022/01/08 01:05:02;;;;;;;5.72;1.20;;;;;;;;;;5104261;28;20215;-79
2022/01/08 01:07:28;;;;;;;4.15;1.30;;;;;;;;;;5088039;28;20179;-78
2022/01/08 01:09:54;;;;;;;3.10;1.08;;;;;;;;;;5114691;28;20689;-78
2022/01/08 01:12:20;;;;;;;5.03;1.50;;;;;;;;;;5101483;28;20175;-78
2022/01/08 01:14:46;;;;;;;2.20;1.20;;;;;;;;;;5100950;28;20198;-77
2022/01/08 01:17:12;;;;;;;2.28;1.08;;;;;;;;;;5126520;27;20657;-76
2022/01/08 01:19:38;;;;;;;2.50;1.10;;;;;;;;;;5086883;28;20242;-77
2022/01/08 01:22:05;;;;;;;1.55;1.00;;;;;;;;;;5109003;28;20746;-78
2022/01/08 01:24:32;;;;;;;2.22;1.10;;;;;;;;;;5109433;28;20179;-78
2022/01/08 01:29:34;;;;;;;3.95;1.20;;;;;;;;;;5126420;27;20250;-78
2022/01/08 01:48:22;;;;;;;1.75;0.98;;;;;;;;;;5040383;28;20244;-77
2022/01/08 01:50:48;;;;;;;1.58;1.10;;;;;;;;;;5019110;28;20610;-78
2022/01/08 01:53:15;;;;;;;1.48;1.15;;;;;;;;;;5039449;28;20201;-77
2022/01/08 01:55:44;;;;;;;1.17;0.90;;;;;;;;;;5056627;28;20216;-77
2022/01/08 01:58:10;;;;;;;0.88;0.80;;;;;;;;;;5036957;28;20237;-77
2022/01/08 02:00:37;;;;;;;1.58;0.90;;;;;;;;;;5023617;28;20193;-78
2022/01/08 02:03:03;;;;;;;5.00;1.63;;;;;;;;;;5016534;28;20194;-77
2022/01/08 02:05:29;;;;;;;1.10;1.00;;;;;;;;;;5008708;28;20210;-78
2022/01/08 02:07:55;;;;;;;1.95;1.23;;;;;;;;;;5040997;28;20216;-78
2022/01/08 02:10:25;;;;;;;2.40;1.20;;;;;;;;;;5052174;28;20178;-78
2022/01/08 02:12:51;;;;;;;1.98;1.33;;;;;;;;;;5123656;28;20178;-78
2022/01/08 02:15:17;;;;;;;1.85;1.20;;;;;;;;;;5104511;28;20254;-78
2022/01/08 02:17:43;;;;;;;2.97;1.08;;;;;;;;;;5103558;28;20222;-78
2022/01/08 02:20:10;;;;;;;5.75;1.83;;;;;;;;;;5108779;28;20545;-78
2022/01/08 02:22:36;;;;;;;5.40;1.52;;;;;;;;;;5108952;28;20250;-78
2022/01/08 02:25:02;;;;;;;1.10;1.00;;;;;;;;;;5093938;28;20343;-78
2022/01/08 02:27:28;;;;;;;3.05;1.13;;;;;;;;;;5111985;28;20183;-78
2022/01/08 02:29:54;;;;;;;1.13;1.02;;;;;;;;;;5097150;28;20213;-78
2022/01/08 02:32:25;;;;;;;1.92;1.17;;;;;;;;;;5097759;28;20436;-78
2022/01/08 02:34:51;;;;;;;2.42;1.35;;;;;;;;;;5109208;28;20180;-78
2022/01/08 02:37:18;;;;;;;2.35;1.40;;;;;;;;;;5110347;28;20237;-78
2022/01/08 02:39:48;;;;;;;1.50;1.10;;;;;;;;;;5122688;27;20194;-78
2022/01/08 02:42:17;;;;;;;3.83;1.20;;;;;;;;;;5118288;27;20210;-78
2022/01/08 02:44:44;;;;;;;1.50;1.20;;;;;;;;;;5112421;28;20197;-78
2022/01/08 02:47:10;;;;;;;1.13;1.02;;;;;;;;;;5110941;28;20232;-78
2022/01/08 02:49:36;;;;;;;5.25;1.23;;;;;;;;;;5107915;28;20198;-78
2022/01/08 02:52:03;;;;;;;1.63;1.02;;;;;;;;;;5111941;28;20243;-78
2022/01/08 02:54:30;;;;;;;3.53;0.90;;;;;;;;;;5112496;28;20180;-77
2022/01/08 02:56:56;;;;;;;1.45;1.13;;;;;;;;;;5110893;28;20191;-78
2022/01/08 02:59:22;;;;;;;1.20;0.85;;;;;;;;;;5097132;28;20182;-78
2022/01/08 03:01:48;;;;;;;1.95;0.93;;;;;;;;;;5090703;28;20179;-77
2022/01/08 03:04:14;;;;;;;3.10;1.15;;;;;;;;;;5110139;28;20262;-78
2022/01/08 03:06:40;;;;;;;2.60;0.90;;;;;;;;;;5109815;28;20211;-78
2022/01/08 03:09:07;;;;;;;0.73;0.73;;;;;;;;;;5095910;28;20645;-78
2022/01/08 03:11:33;;;;;;;1.95;0.90;;;;;;;;;;5110019;28;20273;-79
2022/01/08 03:13:59;;;;;;;2.97;0.85;;;;;;;;;;5094063;28;20179;-78
2022/01/08 03:16:25;;;;;;;1.92;0.90;;;;;;;;;;5123046;28;20250;-77
2022/01/08 03:18:51;;;;;;;1.35;1.08;;;;;;;;;;5092794;28;20218;-78
2022/01/08 03:21:20;;;;;;;6.20;1.00;;;;;;;;;;5111597;28;20229;-78
2022/01/08 03:23:53;;;;;;;6.20;0.90;;;;;;;;;;5111732;28;20180;-79
2022/01/08 03:26:20;;;;;;;1.92;0.93;;;;;;;;;;5091428;28;20212;-79
2022/01/08 03:28:46;;;;;;;2.35;1.20;;;;;;;;;;5105337;28;20198;-78
2022/01/08 03:31:13;;;;;;;2.33;1.13;;;;;;;;;;5091655;28;20247;-78
2022/01/08 03:33:39;;;;;;;2.97;1.00;;;;;;;;;;5117442;28;20232;-79
2022/01/08 03:36:05;;;;;;;4.68;1.48;;;;;;;;;;5099997;28;20221;-78
2022/01/08 03:38:31;;;;;;;3.75;1.35;;;;;;;;;;5129070;27;20179;-78
2022/01/08 03:40:57;;;;;;;3.38;1.15;;;;;;;;;;5092702;28;20652;-80
2022/01/08 03:43:23;;;;;;;3.42;0.95;;;;;;;;;;5090269;28;20184;-78
2022/01/08 03:45:49;;;;;;;6.75;1.67;;;;;;;;;;5110298;28;20203;-78
2022/01/08 03:48:27;;;;;;;1.67;0.90;;;;;;;;;;5111005;28;20225;-78
2022/01/08 03:50:54;;;;;;;1.45;0.90;;;;;;;;;;5110909;28;20250;-77
2022/01/08 03:53:20;;;;;;;5.97;1.58;;;;;;;;;;5098093;28;20486;-78
2022/01/08 03:55:46;;;;;;;2.63;2.30;;;;;;;;;;5090642;28;20195;-79
2022/01/08 03:58:12;;;;;;;2.25;0.98;;;;;;;;;;5091262;28;20197;-79
2022/01/08 04:00:38;;;;;;;2.50;1.65;;;;;;;;;;5090486;28;20183;-78
2022/01/08 04:03:04;;;;;;;2.22;1.20;;;;;;;;;;5105317;27;20201;-78
2022/01/08 04:05:30;;;;;;;1.67;1.48;;;;;;;;;;5128699;27;20282;-78
2022/01/08 04:07:56;;;;;;;2.88;1.20;;;;;;;;;;5107389;28;20203;-79
2022/01/08 04:10:22;;;;;;;4.43;1.70;;;;;;;;;;5090748;28;20277;-78
2022/01/08 04:12:54;;;;;;;4.57;1.40;;;;;;;;;;5092101;28;20271;-78
2022/01/08 04:17:49;;;;;;;2.55;0.90;;;;;;;;;;5109461;28;20220;-77
2022/01/08 04:20:15;;;;;;;1.10;1.00;;;;;;;;;;5090877;28;20218;-77
2022/01/08 04:22:43;;;;;;;1.20;1.10;;;;;;;;;;5108211;28;20195;-79
2022/01/08 04:25:09;;;;;;;1.55;1.35;;;;;;;;;;5090521;28;20684;-79
2022/01/08 04:27:35;;;;;;;2.65;1.10;;;;;;;;;;5109082;28;20188;-79
2022/01/08 04:30:01;;;;;;;2.30;1.25;;;;;;;;;;5113219;28;20182;-79
2022/01/08 04:32:27;;;;;;;2.50;1.00;;;;;;;;;;5104108;28;20202;-78
2022/01/08 04:34:53;;;;;;;3.92;1.67;;;;;;;;;;5104235;28;20647;-78
2022/01/08 04:37:19;;;;;;;4.80;1.30;;;;;;;;;;5120471;28;20179;-78
2022/01/08 04:39:45;;;;;;;1.33;0.80;;;;;;;;;;5105701;28;20480;-77
2022/01/08 04:42:11;;;;;;;1.70;0.90;;;;;;;;;;5113834;28;20191;-77
2022/01/08 04:44:37;;;;;;;1.75;1.20;;;;;;;;;;5109870;28;20188;-78
2022/01/08 04:47:03;;;;;;;4.25;1.30;;;;;;;;;;5089614;28;20176;-78
2022/01/08 04:49:29;;;;;;;2.90;1.05;;;;;;;;;;5122165;28;20175;-78
2022/01/08 04:51:56;;;;;;;1.70;1.10;;;;;;;;;;5109262;28;20189;-79
2022/01/08 04:54:22;;;;;;;2.10;1.10;;;;;;;;;;5094246;28;20282;-77
2022/01/08 04:56:48;;;;;;;2.13;1.30;;;;;;;;;;5109520;28;20251;-78
2022/01/08 04:59:14;;;;;;;2.25;1.33;;;;;;;;;;5094463;27;20316;-78
2022/01/08 05:01:40;;;;;;;1.67;1.00;;;;;;;;;;5105635;28;20206;-78
2022/01/08 05:04:06;;;;;;;2.10;1.40;;;;;;;;;;5091207;28;20657;-78
2022/01/08 05:06:32;;;;;;;1.95;1.10;;;;;;;;;;5108745;28;20461;-78
2022/01/08 05:08:58;;;;;;;2.05;1.15;;;;;;;;;;5094109;28;20209;-78
2022/01/08 05:11:24;;;;;;;5.30;1.10;;;;;;;;;;5113163;28;20183;-78
2022/01/08 05:13:50;;;;;;;1.85;1.25;;;;;;;;;;5089443;28;20432;-78
2022/01/08 05:16:17;;;;;;;5.75;0.95;;;;;;;;;;5107974;28;20177;-78
2022/01/08 05:18:43;;;;;;;1.52;1.00;;;;;;;;;;5093440;28;20219;-78
2022/01/08 05:23:44;;;;;;;2.10;1.40;;;;;;;;;;5109065;28;20190;-78
2022/01/08 05:26:10;;;;;;;2.65;1.20;;;;;;;;;;5093549;28;20203;-78
2022/01/08 05:28:36;;;;;;;2.55;1.17;;;;;;;;;;5099299;28;20561;-78
2022/01/08 05:31:02;;;;;;;2.45;1.27;;;;;;;;;;5109432;28;20175;-79
2022/01/08 05:33:28;;;;;;;6.15;1.52;;;;;;;;;;5104289;28;20183;-78
2022/01/08 05:35:54;;;;;;;1.73;1.05;;;;;;;;;;5099840;28;20190;-78
2022/01/08 05:38:20;;;;;;;3.03;1.45;;;;;;;;;;5120258;28;20194;-77
2022/01/08 05:40:46;;;;;;;2.20;1.08;;;;;;;;;;5105469;28;20179;-78
2022/01/08 05:43:12;;;;;;;1.95;0.90;;;;;;;;;;5107859;28;20257;-78
2022/01/08 05:45:38;;;;;;;1.63;1.10;;;;;;;;;;5105067;28;20224;-79
2022/01/08 05:48:05;;;;;;;4.13;1.20;;;;;;;;;;5113276;28;20179;-79
2022/01/08 05:50:31;;;;;;;1.08;0.95;;;;;;;;;;5092999;28;20232;-78
2022/01/08 05:52:57;;;;;;;6.43;1.60;;;;;;;;;;5089765;28;20176;-78
2022/01/08 05:55:23;;;;;;;3.25;1.27;;;;;;;;;;5106436;28;20207;-78
2022/01/08 05:57:49;;;;;;;2.35;1.10;;;;;;;;;;5108549;28;20175;-78
2022/01/08 06:00:15;;;;;;;3.40;1.05;;;;;;;;;;5098486;28;20239;-78
2022/01/08 06:02:41;;;;;;;2.97;1.08;;;;;;;;;;5123133;28;20640;-78
2022/01/08 06:05:08;;;;;;;2.35;1.25;;;;;;;;;;5119559;28;20201;-78
2022/01/08 06:07:34;;;;;;;1.73;1.00;;;;;;;;;;5086680;28;20187;-78
2022/01/08 06:10:00;;;;;;;2.97;0.90;;;;;;;;;;5109102;28;20179;-78
2022/01/08 06:12:26;;;;;;;3.05;0.95;;;;;;;;;;5117913;28;20186;-78
2022/01/08 06:14:52;;;;;;;3.45;1.27;;;;;;;;;;5111495;28;20195;-78
2022/01/08 06:17:18;;;;;;;2.05;1.05;;;;;;;;;;5102720;28;20246;-78
2022/01/08 06:19:44;;;;;;;2.30;1.50;;;;;;;;;;5087203;28;20566;-78
2022/01/08 06:22:10;;;;;;;1.90;1.25;;;;;;;;;;5121556;28;20175;-78
2022/01/08 06:24:36;;;;;;;2.72;1.30;;;;;;;;;;5104493;28;20187;-78
2022/01/08 06:27:03;;;;;;;2.15;1.42;;;;;;;;;;5117916;28;20235;-78
2022/01/08 06:29:29;;;;;;;4.45;1.30;;;;;;;;;;5106366;28;20179;-78
2022/01/08 06:31:55;;;;;;;2.07;1.20;;;;;;;;;;5119285;28;20184;-77
2022/01/08 06:34:21;;;;;;;1.60;0.80;;;;;;;;;;5086847;28;20418;-77
2022/01/08 06:36:47;;;;;;;4.38;1.48;;;;;;;;;;5113373;28;20170;-77
2022/01/08 06:39:14;;;;;;;3.15;1.50;;;;;;;;;;5107674;28;20186;-77
2022/01/08 06:41:40;;;;;;;2.00;1.10;;;;;;;;;;5113902;28;20535;-77
2022/01/08 06:44:06;;;;;;;2.08;0.90;;;;;;;;;;5118330;28;20203;-77
2022/01/08 06:46:32;;;;;;;3.95;1.95;;;;;;;;;;5119970;28;20211;-77
2022/01/08 06:48:58;;;;;;;3.25;1.00;;;;;;;;;;5096253;28;20177;-77
2022/01/08 06:51:25;;;;;;;3.10;1.00;;;;;;;;;;5106532;28;20656;-77
2022/01/08 06:53:51;;;;;;;4.60;1.00;;;;;;;;;;5109208;28;20186;-78
2022/01/08 06:56:20;;;;;;;4.18;1.27;;;;;;;;;;5112487;28;20246;-78
2022/01/08 06:58:47;;;;;;;2.47;1.58;;;;;;;;;;5108786;28;20270;-78
2022/01/08 07:01:13;;;;;;;6.65;1.30;;;;;;;;;;5101951;27;20191;-78
2022/01/08 07:03:39;;;;;;;3.72;1.10;;;;;;;;;;5096232;28;20179;-78
2022/01/08 07:06:05;;;;;;;3.92;1.30;;;;;;;;;;5112515;28;20210;-77
2022/01/08 07:08:31;;;;;;;12.57;1.75;;;;;;;;;;5104925;28;20255;-78
2022/01/08 07:10:57;;;;;;;7.88;1.73;;;;;;;;;;5114468;27;20171;-78
2022/01/08 07:13:23;;;;;;;3.30;1.40;;;;;;;;;;5105752;28;20172;-79
2022/01/08 07:15:49;;;;;;;8.75;1.75;;;;;;;;;;5103366;27;20662;-78
2022/01/08 07:18:15;;;;;;;6.88;1.33;;;;;;;;;;5116802;27;20219;-79
2022/01/08 07:20:41;;;;;;;2.97;1.35;;;;;;;;;;5112043;28;20195;-78
2022/01/08 07:23:07;;;;;;;3.65;1.75;;;;;;;;;;5111995;27;20187;-78
2022/01/08 07:25:33;;;;;;;8.75;1.90;;;;;;;;;;5108149;28;20239;-78
2022/01/08 07:27:59;;;;;;;6.53;1.80;;;;;;;;;;5092564;28;20179;-78
2022/01/08 07:30:25;;;;;;;6.47;1.75;;;;;;;;;;5114131;27;20175;-78
2022/01/08 07:32:52;;;;;;;7.60;2.20;;;;;;;;;;5125001;27;20191;-78
2022/01/08 07:35:21;;;;;;;7.03;2.67;;;;;;;;;;5109654;28;20270;-79
2022/01/08 07:37:47;;;;;;;6.20;1.85;;;;;;;;;;5092680;28;20271;-77
2022/01/08 07:40:14;;;;;;;5.28;2.70;;;;;;;;;;5104834;28;20176;-78
2022/01/08 07:42:40;;;;;;;7.95;2.30;;;;;;;;;;5110282;27;20183;-78
2022/01/08 07:45:07;;;;;;;5.53;2.35;;;;;;;;;;5122670;28;20555;-78
2022/01/08 07:47:33;;;;;;;9.20;2.33;;;;;;;;;;5100820;27;20179;-77
2022/01/08 07:49:59;;;;;;;8.93;2.30;;;;;;;;;;5118496;28;20183;-78
2022/01/08 07:52:25;;;;;;;6.32;2.33;;;;;;;;;;5122221;27;20167;-78
2022/01/08 07:54:51;;;;;;;4.20;2.17;;;;;;;;;;5113980;28;20228;-79
2022/01/08 07:57:17;;;;;;;6.47;2.40;;;;;;;;;;5111887;28;20494;-78
2022/01/08 07:59:43;;;;;;;9.98;2.60;;;;;;;;;;5100236;28;20199;-79
2022/01/08 08:02:12;;;;;;;8.48;2.25;;;;;;;;;;5107574;28;20176;-78
2022/01/08 08:04:39;;;;;;;9.93;2.70;;;;;;;;;;5125268;27;20198;-78
2022/01/08 08:07:05;;;;;;;15.20;2.70;;;;;;;;;;5092085;28;20176;-78
2022/01/08 08:09:31;;;;;;;10.77;2.67;;;;;;;;;;5095021;28;20185;-77
2022/01/08 08:11:57;;;;;;;10.30;2.90;;;;;;;;;;5102071;27;20183;-78
2022/01/08 08:14:23;;;;;;;7.47;2.10;;;;;;;;;;5101393;27;20195;-78
2022/01/08 08:16:49;;;;;;;9.38;2.50;;;;;;;;;;5126051;27;20187;-78
2022/01/08 08:19:16;;;;;;;8.45;2.40;;;;;;;;;;5103737;28;20227;-78
2022/01/08 08:21:42;;;;;;;14.75;2.50;;;;;;;;;;5123035;27;20535;-78
2022/01/08 08:24:08;;;;;;;4.95;2.28;;;;;;;;;;5123446;27;20187;-79
2022/01/08 08:26:34;;;;;;;10.97;2.50;;;;;;;;;;5125705;27;20209;-79
2022/01/08 08:29:02;;;;;;;5.53;3.00;;;;;;;;;;5127627;27;20587;-79
2022/01/08 08:31:28;;;;;;;8.40;3.80;;;;;;;;;;5112227;27;20586;-80
2022/01/08 08:33:55;;;;;;;11.73;2.40;;;;;;;;;;5100005;28;20171;-80
2022/01/08 08:36:21;;;;;;;3.95;2.58;;;;;;;;;;5122384;27;20198;-81
2022/01/08 08:38:46;;;;;;;9.18;2.67;;;;;;;;;;5108633;28;20183;-80
2022/01/08 08:41:13;;;;;;;5.18;3.15;;;;;;;;;;5105663;28;20194;-80
2022/01/08 08:43:39;;;;;;;14.68;2.80;;;;;;;;;;5103547;28;20547;-80
2022/01/08 08:46:05;;;;;;;4.20;2.00;;;;;;;;;;5123731;28;20226;-79
2022/01/08 08:48:31;;;;;;;6.45;2.00;;;;;;;;;;5096243;28;20186;-81
2022/01/08 08:50:57;;;;;;;11.32;2.33;;;;;;;;;;5119301;28;20190;-78
2022/01/08 08:53:23;;;;;;;9.25;2.80;;;;;;;;;;5120135;28;20183;-81
2022/01/08 08:55:49;;;;;;;4.25;1.90;;;;;;;;;;5120745;28;20206;-80
2022/01/08 08:58:16;;;;;;;9.25;2.40;;;;;;;;;;5105824;28;20171;-80
2022/01/08 09:00:42;;;;;;;5.15;2.30;;;;;;;;;;5118351;27;20213;-80
2022/01/08 09:03:08;;;;;;;9.88;3.30;;;;;;;;;;5122515;27;20248;-82
2022/01/08 09:05:34;;;;;;;7.97;2.28;;;;;;;;;;5103736;27;20198;-80
2022/01/08 09:08:01;;;;;;;5.32;2.50;;;;;;;;;;5108827;28;20176;-81
2022/01/08 09:10:27;;;;;;;9.60;3.20;;;;;;;;;;5128912;27;20225;-80
2022/01/08 09:12:54;;;;;;;2.67;2.47;;;;;;;;;;5122039;28;20226;-81
2022/01/08 09:15:25;;;;;;;3.10;1.75;;;;;;;;;;5105422;27;20784;-81
2022/01/08 09:17:53;;;;;;;5.53;1.77;;;;;;;;;;5107329;28;20222;-80
2022/01/08 09:20:19;;;;;;;3.05;1.60;;;;;;;;;;5103278;28;20254;-80
2022/01/08 09:22:44;;;;;;;7.07;2.30;;;;;;;;;;5102071;28;20226;-79
2022/01/08 09:25:11;;;;;;;5.28;2.05;;;;;;;;;;5108185;28;20221;-80
2022/01/08 09:27:37;;;;;;;2.42;1.63;;;;;;;;;;5102319;27;20178;-80
2022/01/08 09:30:04;;;;;;;5.68;3.20;;;;;;;;;;5099901;28;20214;-78
2022/01/08 09:32:30;;;;;;;8.13;1.50;;;;;;;;;;5091132;28;20180;-80
2022/01/08 09:34:56;;;;;;;3.42;1.85;;;;;;;;;;5103630;28;20191;-79
2022/01/08 09:37:22;;;;;;;7.05;1.80;;;;;;;;;;5122835;28;20262;-79
2022/01/08 09:39:48;;;;;;;3.35;1.67;;;;;;;;;;5090539;28;20176;-79
2022/01/08 09:42:14;;;;;;;10.77;3.60;;;;;;;;;;5093446;28;20186;-80
2022/01/08 09:44:44;;;;;;;5.53;2.15;;;;;;;;;;5096084;28;20491;-81
2022/01/08 09:47:10;;;;;;;4.22;2.28;;;;;;;;;;5104314;28;20172;-80
2022/01/08 09:49:36;;;;;;;3.20;1.90;;;;;;;;;;5105626;27;20340;-82
2022/01/08 09:52:03;;;;;;;3.58;2.25;;;;;;;;;;5119304;28;20554;-79
2022/01/08 09:54:30;;;;;;;3.80;2.25;;;;;;;;;;5125200;27;20178;-83
2022/01/08 09:56:56;;;;;;;4.63;2.40;;;;;;;;;;5120507;27;20190;-80
2022/01/08 09:59:23;;;;;;;7.18;3.28;;;;;;;;;;5100187;28;20194;-81
2022/01/08 10:01:54;;;;;;;4.75;2.38;;;;;;;;;;5105162;28;20171;-79
2022/01/08 10:04:24;;;;;;;9.45;3.28;;;;;;;;;;5107144;28;20175;-79
2022/01/08 10:06:50;;;;;;;10.30;2.85;;;;;;;;;;5092825;28;20628;-79
2022/01/08 10:09:16;;;;;;;6.07;2.67;;;;;;;;;;5093295;28;20210;-78
2022/01/08 10:11:49;;;;;;;5.47;2.42;;;;;;;;;;5100406;28;20425;-85
2022/01/08 10:14:28;;;;;;;8.88;3.35;;;;;;;;;;5112048;28;20176;-79
2022/01/08 10:19:38;;;;;;;6.90;2.65;;;;;;;;;;5103549;28;20234;-80
2022/01/08 10:22:14;;;;;;;8.77;3.00;;;;;;;;;;5117998;28;20181;-81
2022/01/08 10:24:40;;;;;;;12.00;4.20;;;;;;;;;;5103204;28;20183;-81
2022/01/08 10:27:07;;;;;;;6.03;2.63;;;;;;;;;;5112770;28;20225;-81
2022/01/08 10:29:33;;;;;;;6.18;3.60;;;;;;;;;;5091099;28;20429;-81
2022/01/08 10:31:59;;;;;;;12.32;3.75;;;;;;;;;;5110250;28;20210;-80
2022/01/08 10:34:30;;;;;;;12.90;2.75;;;;;;;;;;5106632;28;20199;-80
2022/01/08 10:36:56;;;;;;;10.48;3.80;;;;;;;;;;5117445;28;20188;-81
2022/01/08 10:39:31;;;;;;;9.87;3.93;;;;;;;;;;5120908;27;20189;-79
2022/01/08 10:41:58;;;;;;;10.55;5.80;;;;;;;;;;5107730;28;20485;-79
2022/01/08 10:44:26;;;;;;;17.30;4.32;;;;;;;;;;5107575;28;20273;-81
2022/01/08 10:46:52;;;;;;;16.42;4.78;;;;;;;;;;5125070;27;20235;-80
2022/01/08 10:49:27;;;;;;;16.05;4.05;;;;;;;;;;5128115;27;20168;-80
2022/01/08 10:51:56;;;;;;;15.15;3.72;;;;;;;;;;5109439;27;20178;-84
2022/01/08 10:54:25;;;;;;;19.30;4.70;;;;;;;;;;5103470;28;20197;-81
2022/01/08 10:56:56;;;;;;;14.75;4.05;;;;;;;;;;5105213;28;20186;-82
2022/01/08 10:59:23;;;;;;;10.15;3.72;;;;;;;;;;5105699;28;20178;-81
2022/01/08 11:01:56;;;;;;;16.45;4.30;;;;;;;;;;5125567;27;20231;-81
2022/01/08 11:04:38;;;;;;;11.15;3.78;;;;;;;;;;5106488;28;20174;-81
2022/01/08 11:07:07;;;;;;;18.17;3.30;;;;;;;;;;5108184;27;20213;-82
2022/01/08 11:09:35;;;;;;;9.05;3.15;;;;;;;;;;5103139;27;20183;-81
2022/01/08 11:12:01;;;;;;;12.25;4.30;;;;;;;;;;5099444;28;20205;-82
2022/01/08 11:17:29;;;;;;;12.73;3.35;;;;;;;;;;5129377;27;20193;-83
2022/01/08 11:19:57;;;;;;;9.55;4.13;;;;;;;;;;5096019;28;20203;-81
2022/01/08 11:22:24;;;;;;;7.30;3.25;;;;;;;;;;5111803;28;20252;-80
2022/01/08 11:24:51;;;;;;;10.93;4.00;;;;;;;;;;5095081;27;20180;-81
2022/01/08 11:27:22;;;;;;;13.25;4.25;;;;;;;;;;5104758;28;20205;-81
2022/01/08 11:29:54;;;;;;;13.18;4.97;;;;;;;;;;5106064;28;20197;-81
2022/01/08 11:32:20;;;;;;;13.05;3.33;;;;;;;;;;5121713;28;20217;-82
2022/01/08 11:34:46;;;;;;;9.10;3.15;;;;;;;;;;5089887;28;20180;-81
2022/01/08 11:37:14;;;;;;;14.30;4.15;;;;;;;;;;5109712;27;20641;-81
2022/01/08 11:39:41;;;;;;;13.10;3.53;;;;;;;;;;5110650;28;20172;-81
2022/01/08 11:42:07;;;;;;;10.52;3.83;;;;;;;;;;5095476;28;20191;-82
2022/01/08 11:44:35;;;;;;;13.90;3.60;;;;;;;;;;5109610;28;20187;-82
2022/01/08 11:47:01;;;;;;;12.50;4.03;;;;;;;;;;5109260;27;20483;-81
2022/01/08 11:49:28;;;;;;;14.65;4.30;;;;;;;;;;5091280;27;20187;-81
2022/01/08 11:52:12;;;;;;;14.23;3.70;;;;;;;;;;5091713;28;20183;-81
2022/01/08 11:54:42;;;;;;;8.18;4.00;;;;;;;;;;5110934;28;20243;-86
2022/01/08 11:57:16;;;;;;;14.27;3.70;;;;;;;;;;5116536;27;20175;-82
2022/01/08 11:59:43;;;;;;;15.38;3.60;;;;;;;;;;5107081;27;20189;-81
2022/01/08 12:02:11;;;;;;;12.93;3.67;;;;;;;;;;5110999;28;20178;-82
2022/01/08 12:04:37;;;;;;;20.33;5.43;;;;;;;;;;5105513;27;20195;-83
2022/01/08 12:07:22;;;;;;;13.30;3.78;;;;;;;;;;5117924;27;20241;-86
2022/01/08 12:09:48;;;;;;;15.45;3.45;;;;;;;;;;5120343;27;20202;-86
2022/01/08 12:12:14;;;;;;;14.55;4.50;;;;;;;;;;5109027;28;20184;-83
2022/01/08 12:14:43;;;;;;;12.15;4.35;;;;;;;;;;5114064;28;20263;-81
2022/01/08 12:17:17;;;;;;;14.60;5.30;;;;;;;;;;5105740;28;20273;-82
2022/01/08 12:19:54;;;;;;;13.25;4.20;;;;;;;;;;5087397;28;20329;-81
2022/01/08 12:22:20;;;;;;;13.45;4.80;;;;;;;;;;5123320;28;20255;-83
2022/01/08 12:24:49;;;;;;;12.13;4.80;;;;;;;;;;5104580;28;20190;-82
2022/01/08 12:27:21;;;;;;;9.27;4.13;;;;;;;;;;5102348;28;20538;-82
2022/01/08 12:29:48;;;;;;;14.18;3.15;;;;;;;;;;5109605;27;20179;-81
2022/01/08 12:32:28;;;;;;;8.20;3.88;;;;;;;;;;5122703;28;20179;-79
2022/01/08 12:35:01;;;;;;;19.23;3.78;;;;;;;;;;5125936;27;20242;-80
2022/01/08 12:37:41;;;;;;;10.43;3.00;;;;;;;;;;5121244;28;20167;-81
2022/01/08 12:40:09;;;;;;;9.48;2.72;;;;;;;;;;5108665;28;20167;-80
2022/01/08 12:42:37;;;;;;;7.72;2.42;;;;;;;;;;5107112;27;20186;-80
2022/01/08 12:45:06;;;;;;;15.80;3.97;;;;;;;;;;5124646;27;20265;-83
2022/01/08 12:47:43;;;;;;;12.50;3.80;;;;;;;;;;5124934;27;20184;-82
2022/01/08 12:50:23;;;;;;;9.45;3.15;;;;;;;;;;5103079;28;20179;-81
2022/01/08 12:53:04;;;;;;;11.18;3.45;;;;;;;;;;5120158;28;20275;-82
2022/01/08 12:55:31;;;;;;;12.63;3.55;;;;;;;;;;5101785;28;20176;-80
2022/01/08 12:57:58;;;;;;;9.00;4.25;;;;;;;;;;5102127;28;20269;-79
2022/01/08 13:00:24;;;;;;;8.48;3.10;;;;;;;;;;5095890;28;20640;-81
2022/01/08 13:02:50;;;;;;;7.60;2.53;;;;;;;;;;5112178;28;20463;-82
2022/01/08 13:05:16;;;;;;;7.68;3.50;;;;;;;;;;5101560;28;20773;-82
2022/01/08 13:07:48;;;;;;;9.15;3.05;;;;;;;;;;5086801;28;20257;-83
2022/01/08 13:10:16;;;;;;;8.35;2.85;;;;;;;;;;5102114;28;20193;-81
2022/01/08 13:12:42;;;;;;;10.57;3.00;;;;;;;;;;5120019;28;20271;-83
2022/01/08 13:15:08;;;;;;;9.48;3.38;;;;;;;;;;5094897;28;20194;-86
2022/01/08 13:17:34;;;;;;;8.07;2.85;;;;;;;;;;5096735;28;20348;-84
2022/01/08 13:20:04;;;;;;;9.88;2.40;;;;;;;;;;5096162;28;20187;-81
2022/01/08 13:22:31;;;;;;;8.85;3.05;;;;;;;;;;5126859;27;20182;-83
2022/01/08 13:24:58;;;;;;;11.15;3.10;;;;;;;;;;5101795;28;20175;-81
2022/01/08 13:27:24;;;;;;;14.07;3.28;;;;;;;;;;5104461;28;20204;-83
2022/01/08 13:29:51;;;;;;;12.13;2.70;;;;;;;;;;5098696;28;20184;-83
2022/01/08 13:32:18;;;;;;;6.47;2.95;;;;;;;;;;5102009;28;20542;-82
2022/01/08 13:34:48;;;;;;;5.70;2.38;;;;;;;;;;5104746;28;20183;-84
2022/01/08 13:37:18;;;;;;;11.57;4.32;;;;;;;;;;5105539;28;20182;-85
2022/01/08 13:39:47;;;;;;;14.02;4.07;;;;;;;;;;5100734;28;20179;-86
2022/01/08 13:42:14;;;;;;;8.43;3.22;;;;;;;;;;5094130;28;20183;-88
2022/01/08 13:44:51;;;;;;;6.72;2.60;;;;;;;;;;5095777;28;20208;-85
2022/01/08 13:47:18;;;;;;;7.72;2.60;;;;;;;;;;5119610;28;20194;-80
2022/01/08 13:49:46;;;;;;;6.05;3.70;;;;;;;;;;5087451;28;20186;-82
2022/01/08 13:52:16;;;;;;;8.00;2.65;;;;;;;;;;5101716;28;20167;-80
2022/01/08 13:54:42;;;;;;;5.47;2.00;;;;;;;;;;5119942;28;20172;-83
2022/01/08 13:57:13;;;;;;;15.53;2.90;;;;;;;;;;5101897;28;20258;-83
2022/01/08 13:59:39;;;;;;;11.00;3.28;;;;;;;;;;5100272;28;20452;-83
2022/01/08 14:02:05;;;;;;;10.85;2.08;;;;;;;;;;5102684;28;20190;-81
2022/01/08 14:04:31;;;;;;;13.98;2.50;;;;;;;;;;5119104;28;20190;-83
2022/01/08 14:06:57;;;;;;;7.05;2.63;;;;;;;;;;5108386;28;20222;-83
2022/01/08 14:09:23;;;;;;;8.43;3.10;;;;;;;;;;5100104;28;20175;-82
2022/01/08 14:11:49;;;;;;;9.48;2.55;;;;;;;;;;5099754;28;20179;-82
2022/01/08 14:14:18;;;;;;;6.53;2.50;;;;;;;;;;5104693;28;20187;-83
2022/01/08 14:16:45;;;;;;;8.27;2.10;;;;;;;;;;5085735;28;20182;-82
2022/01/08 14:19:12;;;;;;;13.18;2.47;;;;;;;;;;5097634;28;20608;-83
2022/01/08 14:21:39;;;;;;;7.03;2.17;;;;;;;;;;5099820;28;20187;-84
2022/01/08 14:24:19;;;;;;;7.13;2.25;;;;;;;;;;5103324;28;20197;-87
2022/01/08 14:27:01;;;;;;;8.48;2.70;;;;;;;;;;5120378;28;20206;-84
2022/01/08 14:29:27;;;;;;;8.63;2.67;;;;;;;;;;5119291;28;20175;-87
2022/01/08 14:31:54;;;;;;;5.88;3.42;;;;;;;;;;5100289;28;20194;-85
2022/01/08 14:34:21;;;;;;;10.57;2.40;;;;;;;;;;5102792;28;20258;-85
2022/01/08 14:36:58;;;;;;;7.63;2.10;;;;;;;;;;5099926;28;20184;-85
2022/01/08 14:39:45;;;;;;;7.15;1.92;;;;;;;;;;5101064;28;20193;-86
2022/01/08 14:42:15;;;;;;;6.78;2.10;;;;;;;;;;5107762;28;20176;-86
2022/01/08 14:44:53;;;;;;;8.68;3.05;;;;;;;;;;5100567;28;20192;-87
2022/01/08 14:47:38;;;;;;;7.18;1.92;;;;;;;;;;5091434;28;20186;-86
2022/01/08 14:50:08;;;;;;;7.13;2.38;;;;;;;;;;5106166;28;20199;-84
2022/01/08 14:52:35;;;;;;;8.35;2.20;;;;;;;;;;5089684;28;20187;-86
2022/01/08 14:55:02;;;;;;;8.95;1.95;;;;;;;;;;5091130;28;20172;-85
2022/01/08 14:57:28;;;;;;;10.50;2.58;;;;;;;;;;5109317;28;20184;-85
2022/01/08 14:59:54;;;;;;;10.20;2.97;;;;;;;;;;5092038;28;20186;-81
2022/01/08 15:02:20;;;;;;;10.65;3.00;;;;;;;;;;5091711;28;20425;-84
2022/01/08 15:04:46;;;;;;;8.77;3.03;;;;;;;;;;5103176;28;20214;-82
2022/01/08 15:07:13;;;;;;;5.40;2.55;;;;;;;;;;5088854;28;20233;-85
2022/01/08 15:09:39;;;;;;;6.05;2.75;;;;;;;;;;5114208;28;20237;-85
2022/01/08 15:12:05;;;;;;;8.82;2.15;;;;;;;;;;5096428;28;20179;-85